sensor_id;sensor_type;location;lat;lon;timestamp;P1;durP1;ratioP1;P2;durP2;ratioP2
22425;SDS011;11380;50.822;15.790;2023-10-08T00:01:57;59.23;;;52.37;;
22425;SDS011;11380;50.822;15.790;2023-10-08T00:07:06;60.85;;;52.75;;
22425;SDS011;11380;50.822;15.790;2023-10-08T00:12:13;62.90;;;52.85;;
22425;SDS011;11380;50.822;15.790;2023-10-08T00:17:20;59.63;;;52.43;;
22425;SDS011;11380;50.822;15.790;2023-10-08T00:22:28;61.70;;;52.00;;
22425;SDS011;11380;50.822;15.790;2023-10-08T00:27:37;57.70;;;51.30;;
22425;SDS011;11380;50.822;15.790;2023-10-08T00:32:44;58.67;;;51.37;;
22425;SDS011;11380;50.822;15.790;2023-10-08T00:37:52;57.33;;;51.03;;
22425;SDS011;11380;50.822;15.790;2023-10-08T00:43:00;57.87;;;50.53;;
22425;SDS011;11380;50.822;15.790;2023-10-08T00:48:10;56.77;;;50.60;;
22425;SDS011;11380;50.822;15.790;2023-10-08T00:53:19;56.60;;;50.40;;
22425;SDS011;11380;50.822;15.790;2023-10-08T00:58:27;56.33;;;50.23;;
22425;SDS011;11380;50.822;15.790;2023-10-08T01:03:34;56.30;;;50.20;;
22425;SDS011;11380;50.822;15.790;2023-10-08T01:08:44;56.13;;;50.10;;
22425;SDS011;11380;50.822;15.790;2023-10-08T01:13:53;56.03;;;50.00;;
22425;SDS011;11380;50.822;15.790;2023-10-08T01:19:02;56.35;;;50.25;;
22425;SDS011;11380;50.822;15.790;2023-10-08T01:24:11;57.30;;;50.15;;
22425;SDS011;11380;50.822;15.790;2023-10-08T01:29:19;55.97;;;49.93;;
22425;SDS011;11380;50.822;15.790;2023-10-08T01:34:28;55.40;;;49.50;;
22425;SDS011;11380;50.822;15.790;2023-10-08T01:39:39;55.70;;;49.73;;
22425;SDS011;11380;50.822;15.790;2023-10-08T01:44:47;55.03;;;49.20;;
22425;SDS011;11380;50.822;15.790;2023-10-08T01:50:01;55.17;;;49.27;;
22425;SDS011;11380;50.822;15.790;2023-10-08T01:55:13;55.55;;;49.55;;
22425;SDS011;11380;50.822;15.790;2023-10-08T02:00:21;54.63;;;48.87;;
22425;SDS011;11380;50.822;15.790;2023-10-08T02:05:30;55.03;;;49.13;;
22425;SDS011;11380;50.822;15.790;2023-10-08T02:10:38;54.57;;;48.87;;
22425;SDS011;11380;50.822;15.790;2023-10-08T02:15:50;54.57;;;48.83;;
22425;SDS011;11380;50.822;15.790;2023-10-08T02:20:58;54.60;;;48.80;;
22425;SDS011;11380;50.822;15.790;2023-10-08T02:26:05;54.35;;;48.65;;
22425;SDS011;11380;50.822;15.790;2023-10-08T02:31:12;54.33;;;48.63;;
22425;SDS011;11380;50.822;15.790;2023-10-08T02:36:19;54.13;;;48.50;;
22425;SDS011;11380;50.822;15.790;2023-10-08T02:41:27;54.33;;;48.70;;
22425;SDS011;11380;50.822;15.790;2023-10-08T02:46:33;54.03;;;48.42;;
22425;SDS011;11380;50.822;15.790;2023-10-08T02:51:42;54.23;;;48.63;;
22425;SDS011;11380;50.822;15.790;2023-10-08T02:56:49;54.37;;;48.67;;
22425;SDS011;11380;50.822;15.790;2023-10-08T03:01:59;54.50;;;48.83;;
22425;SDS011;11380;50.822;15.790;2023-10-08T03:07:06;54.17;;;48.53;;
22425;SDS011;11380;50.822;15.790;2023-10-08T03:12:16;54.25;;;48.60;;
22425;SDS011;11380;50.822;15.790;2023-10-08T03:17:23;60.23;;;52.27;;
22425;SDS011;11380;50.822;15.790;2023-10-08T03:22:30;54.63;;;48.90;;
22425;SDS011;11380;50.822;15.790;2023-10-08T03:27:38;55.17;;;49.37;;
22425;SDS011;11380;50.822;15.790;2023-10-08T03:32:46;54.00;;;48.47;;
22425;SDS011;11380;50.822;15.790;2023-10-08T03:37:55;54.27;;;48.67;;
22425;SDS011;11380;50.822;15.790;2023-10-08T03:43:04;53.43;;;47.97;;
22425;SDS011;11380;50.822;15.790;2023-10-08T03:48:12;53.43;;;48.00;;
22425;SDS011;11380;50.822;15.790;2023-10-08T03:53:22;53.47;;;48.03;;
22425;SDS011;11380;50.822;15.790;2023-10-08T03:58:29;53.40;;;48.02;;
22425;SDS011;11380;50.822;15.790;2023-10-08T04:03:37;53.53;;;48.10;;
22425;SDS011;11380;50.822;15.790;2023-10-08T04:08:52;53.20;;;47.73;;
22425;SDS011;11380;50.822;15.790;2023-10-08T04:14:10;52.73;;;47.43;;
22425;SDS011;11380;50.822;15.790;2023-10-08T04:19:20;52.90;;;47.60;;
22425;SDS011;11380;50.822;15.790;2023-10-08T04:24:34;53.30;;;47.80;;
22425;SDS011;11380;50.822;15.790;2023-10-08T04:29:43;53.63;;;48.00;;
22425;SDS011;11380;50.822;15.790;2023-10-08T04:34:51;52.70;;;47.50;;
22425;SDS011;11380;50.822;15.790;2023-10-08T04:40:00;52.90;;;47.60;;
22425;SDS011;11380;50.822;15.790;2023-10-08T04:45:10;52.85;;;47.65;;
22425;SDS011;11380;50.822;15.790;2023-10-08T04:50:17;53.47;;;48.17;;
22425;SDS011;11380;50.822;15.790;2023-10-08T04:55:25;52.73;;;47.53;;
22425;SDS011;11380;50.822;15.790;2023-10-08T05:00:35;52.60;;;47.40;;
22425;SDS011;11380;50.822;15.790;2023-10-08T05:05:49;52.37;;;47.30;;
22425;SDS011;11380;50.822;15.790;2023-10-08T05:10:58;52.53;;;47.43;;
22425;SDS011;11380;50.822;15.790;2023-10-08T05:16:09;52.40;;;47.30;;
22425;SDS011;11380;50.822;15.790;2023-10-08T05:21:26;53.10;;;47.80;;
22425;SDS011;11380;50.822;15.790;2023-10-08T05:26:37;52.63;;;47.50;;
22425;SDS011;11380;50.822;15.790;2023-10-08T05:31:51;52.43;;;47.33;;
22425;SDS011;11380;50.822;15.790;2023-10-08T05:36:59;52.90;;;47.60;;
22425;SDS011;11380;50.822;15.790;2023-10-08T05:42:09;52.93;;;47.73;;
22425;SDS011;11380;50.822;15.790;2023-10-08T05:47:21;51.87;;;46.87;;
22425;SDS011;11380;50.822;15.790;2023-10-08T05:52:37;52.47;;;47.40;;
22425;SDS011;11380;50.822;15.790;2023-10-08T05:58:05;52.14;;;47.14;;
22425;SDS011;11380;50.822;15.790;2023-10-08T06:03:20;52.40;;;47.30;;
22425;SDS011;11380;50.822;15.790;2023-10-08T06:08:44;52.53;;;47.40;;
22425;SDS011;11380;50.822;15.790;2023-10-08T06:13:53;52.70;;;47.50;;
22425;SDS011;11380;50.822;15.790;2023-10-08T06:19:03;52.60;;;47.50;;
22425;SDS011;11380;50.822;15.790;2023-10-08T06:24:10;52.83;;;47.38;;
22425;SDS011;11380;50.822;15.790;2023-10-08T06:29:18;52.73;;;47.57;;
22425;SDS011;11380;50.822;15.790;2023-10-08T06:34:33;52.93;;;47.43;;
22425;SDS011;11380;50.822;15.790;2023-10-08T06:39:40;52.43;;;47.33;;
22425;SDS011;11380;50.822;15.790;2023-10-08T06:44:53;52.30;;;47.10;;
22425;SDS011;11380;50.822;15.790;2023-10-08T06:50:04;52.95;;;47.65;;
22425;SDS011;11380;50.822;15.790;2023-10-08T06:55:13;53.02;;;47.65;;
22425;SDS011;11380;50.822;15.790;2023-10-08T07:00:22;52.63;;;47.33;;
22425;SDS011;11380;50.822;15.790;2023-10-08T07:05:46;52.67;;;47.50;;
22425;SDS011;11380;50.822;15.790;2023-10-08T07:11:06;53.00;;;47.70;;
22425;SDS011;11380;50.822;15.790;2023-10-08T07:16:15;52.80;;;47.60;;
22425;SDS011;11380;50.822;15.790;2023-10-08T07:21:24;53.03;;;47.83;;
22425;SDS011;11380;50.822;15.790;2023-10-08T07:26:34;53.50;;;47.90;;
22425;SDS011;11380;50.822;15.790;2023-10-08T07:31:43;53.17;;;47.67;;
22425;SDS011;11380;50.822;15.790;2023-10-08T07:36:54;53.50;;;48.20;;
22425;SDS011;11380;50.822;15.790;2023-10-08T07:42:03;53.40;;;48.03;;
22425;SDS011;11380;50.822;15.790;2023-10-08T07:47:12;53.08;;;47.75;;
22425;SDS011;11380;50.822;15.790;2023-10-08T07:52:19;53.25;;;47.83;;
22425;SDS011;11380;50.822;15.790;2023-10-08T07:57:27;54.10;;;48.57;;
22425;SDS011;11380;50.822;15.790;2023-10-08T08:02:35;54.33;;;48.73;;
22425;SDS011;11380;50.822;15.790;2023-10-08T08:07:43;53.80;;;48.47;;
22425;SDS011;11380;50.822;15.790;2023-10-08T08:12:51;54.20;;;48.60;;
22425;SDS011;11380;50.822;15.790;2023-10-08T08:18:00;54.80;;;49.20;;
22425;SDS011;11380;50.822;15.790;2023-10-08T08:23:08;54.65;;;49.10;;
22425;SDS011;11380;50.822;15.790;2023-10-08T08:28:16;55.33;;;49.42;;
22425;SDS011;11380;50.822;15.790;2023-10-08T08:33:24;55.70;;;49.60;;
22425;SDS011;11380;50.822;15.790;2023-10-08T08:38:32;54.97;;;49.30;;
22425;SDS011;11380;50.822;15.790;2023-10-08T08:43:39;55.98;;;49.88;;
22425;SDS011;11380;50.822;15.790;2023-10-08T08:48:48;55.97;;;49.97;;
22425;SDS011;11380;50.822;15.790;2023-10-08T08:53:57;56.30;;;50.00;;
22425;SDS011;11380;50.822;15.790;2023-10-08T08:59:06;55.53;;;49.77;;
22425;SDS011;11380;50.822;15.790;2023-10-08T09:04:18;55.33;;;49.43;;
22425;SDS011;11380;50.822;15.790;2023-10-08T09:09:37;55.43;;;49.63;;
22425;SDS011;11380;50.822;15.790;2023-10-08T09:14:45;56.47;;;50.40;;
22425;SDS011;11380;50.822;15.790;2023-10-08T09:19:52;55.77;;;49.87;;
22425;SDS011;11380;50.822;15.790;2023-10-08T09:30:07;55.97;;;50.07;;
22425;SDS011;11380;50.822;15.790;2023-10-08T09:35:17;55.73;;;49.83;;
22425;SDS011;11380;50.822;15.790;2023-10-08T09:40:24;55.87;;;49.90;;
22425;SDS011;11380;50.822;15.790;2023-10-08T09:45:32;56.97;;;50.93;;
22425;SDS011;11380;50.822;15.790;2023-10-08T09:50:41;56.20;;;50.23;;
22425;SDS011;11380;50.822;15.790;2023-10-08T09:55:53;56.60;;;50.60;;
22425;SDS011;11380;50.822;15.790;2023-10-08T10:01:04;56.75;;;50.58;;
22425;SDS011;11380;50.822;15.790;2023-10-08T10:06:14;56.90;;;50.33;;
22425;SDS011;11380;50.822;15.790;2023-10-08T10:11:26;55.67;;;49.80;;
22425;SDS011;11380;50.822;15.790;2023-10-08T10:16:36;57.97;;;51.80;;
22425;SDS011;11380;50.822;15.790;2023-10-08T10:21:43;56.50;;;50.50;;
22425;SDS011;11380;50.822;15.790;2023-10-08T10:26:52;56.60;;;50.40;;
22425;SDS011;11380;50.822;15.790;2023-10-08T10:32:04;56.45;;;50.48;;
22425;SDS011;11380;50.822;15.790;2023-10-08T10:37:11;55.75;;;49.85;;
22425;SDS011;11380;50.822;15.790;2023-10-08T10:42:24;56.33;;;50.33;;
22425;SDS011;11380;50.822;15.790;2023-10-08T10:47:32;56.80;;;50.60;;
22425;SDS011;11380;50.822;15.790;2023-10-08T10:52:48;56.07;;;50.07;;
22425;SDS011;11380;50.822;15.790;2023-10-08T10:57:58;57.23;;;51.00;;
22425;SDS011;11380;50.822;15.790;2023-10-08T11:03:19;57.17;;;50.83;;
22425;SDS011;11380;50.822;15.790;2023-10-08T11:08:30;56.37;;;50.27;;
22425;SDS011;11380;50.822;15.790;2023-10-08T11:13:40;56.43;;;50.27;;
22425;SDS011;11380;50.822;15.790;2023-10-08T11:18:49;56.57;;;50.37;;
22425;SDS011;11380;50.822;15.790;2023-10-08T11:23:58;56.70;;;50.60;;
22425;SDS011;11380;50.822;15.790;2023-10-08T11:29:07;55.83;;;49.83;;
22425;SDS011;11380;50.822;15.790;2023-10-08T11:34:16;55.58;;;49.53;;
22425;SDS011;11380;50.822;15.790;2023-10-08T11:39:24;55.17;;;49.30;;
22425;SDS011;11380;50.822;15.790;2023-10-08T11:44:33;56.70;;;49.80;;
22425;SDS011;11380;50.822;15.790;2023-10-08T11:49:41;56.07;;;49.97;;
22425;SDS011;11380;50.822;15.790;2023-10-08T11:54:58;57.10;;;50.88;;
22425;SDS011;11380;50.822;15.790;2023-10-08T12:00:05;56.13;;;50.00;;
22425;SDS011;11380;50.822;15.790;2023-10-08T12:05:23;56.53;;;50.40;;
22425;SDS011;11380;50.822;15.790;2023-10-08T12:10:31;56.93;;;50.73;;
22425;SDS011;11380;50.822;15.790;2023-10-08T12:15:39;57.60;;;51.30;;
22425;SDS011;11380;50.822;15.790;2023-10-08T12:20:48;56.70;;;50.60;;
22425;SDS011;11380;50.822;15.790;2023-10-08T12:25:58;57.26;;;51.06;;
22425;SDS011;11380;50.822;15.790;2023-10-08T12:31:06;56.15;;;50.05;;
22425;SDS011;11380;50.822;15.790;2023-10-08T12:36:14;56.50;;;50.40;;
22425;SDS011;11380;50.822;15.790;2023-10-08T12:41:21;58.17;;;50.17;;
22425;SDS011;11380;50.822;15.790;2023-10-08T12:46:35;55.83;;;49.83;;
22425;SDS011;11380;50.822;15.790;2023-10-08T12:51:42;56.23;;;50.10;;
22425;SDS011;11380;50.822;15.790;2023-10-08T12:56:49;60.70;;;49.93;;
22425;SDS011;11380;50.822;15.790;2023-10-08T13:01:58;55.78;;;49.75;;
22425;SDS011;11380;50.822;15.790;2023-10-08T13:07:07;55.77;;;49.70;;
22425;SDS011;11380;50.822;15.790;2023-10-08T13:12:16;55.83;;;49.80;;
22425;SDS011;11380;50.822;15.790;2023-10-08T13:17:24;55.70;;;49.60;;
22425;SDS011;11380;50.822;15.790;2023-10-08T13:22:32;55.73;;;49.67;;
22425;SDS011;11380;50.822;15.790;2023-10-08T13:27:40;56.07;;;50.03;;
22425;SDS011;11380;50.822;15.790;2023-10-08T13:32:46;55.50;;;49.53;;
22425;SDS011;11380;50.822;15.790;2023-10-08T13:37:54;55.93;;;49.87;;
22425;SDS011;11380;50.822;15.790;2023-10-08T13:43:01;55.97;;;49.90;;
22425;SDS011;11380;50.822;15.790;2023-10-08T13:48:10;56.18;;;50.08;;
22425;SDS011;11380;50.822;15.790;2023-10-08T13:53:18;56.50;;;50.30;;
22425;SDS011;11380;50.822;15.790;2023-10-08T13:58:25;56.47;;;50.37;;
22425;SDS011;11380;50.822;15.790;2023-10-08T14:03:34;55.80;;;49.70;;
22425;SDS011;11380;50.822;15.790;2023-10-08T14:08:42;57.07;;;50.17;;
22425;SDS011;11380;50.822;15.790;2023-10-08T14:13:51;55.90;;;49.90;;
22425;SDS011;11380;50.822;15.790;2023-10-08T14:18:59;55.93;;;49.87;;
22425;SDS011;11380;50.822;15.790;2023-10-08T14:24:08;55.67;;;49.63;;
22425;SDS011;11380;50.822;15.790;2023-10-08T14:29:18;56.48;;;50.28;;
22425;SDS011;11380;50.822;15.790;2023-10-08T14:34:25;56.13;;;49.87;;
22425;SDS011;11380;50.822;15.790;2023-10-08T14:39:49;55.97;;;49.77;;
22425;SDS011;11380;50.822;15.790;2023-10-08T14:45:13;56.07;;;50.03;;
22425;SDS011;11380;50.822;15.790;2023-10-08T14:50:23;56.23;;;50.13;;
22425;SDS011;11380;50.822;15.790;2023-10-08T14:55:35;55.57;;;49.60;;
22425;SDS011;11380;50.822;15.790;2023-10-08T15:00:42;55.97;;;49.87;;
22425;SDS011;11380;50.822;15.790;2023-10-08T15:05:49;56.13;;;50.00;;
22425;SDS011;11380;50.822;15.790;2023-10-08T15:10:58;55.50;;;49.55;;
22425;SDS011;11380;50.822;15.790;2023-10-08T15:16:07;56.02;;;49.98;;
22425;SDS011;11380;50.822;15.790;2023-10-08T15:21:14;56.10;;;50.00;;
22425;SDS011;11380;50.822;15.790;2023-10-08T15:26:21;55.50;;;49.43;;
22425;SDS011;11380;50.822;15.790;2023-10-08T15:31:29;55.67;;;49.70;;
22425;SDS011;11380;50.822;15.790;2023-10-08T15:36:36;55.97;;;49.93;;
22425;SDS011;11380;50.822;15.790;2023-10-08T15:41:44;56.00;;;50.00;;
22425;SDS011;11380;50.822;15.790;2023-10-08T15:46:50;55.97;;;49.90;;
22425;SDS011;11380;50.822;15.790;2023-10-08T15:51:58;55.45;;;49.55;;
22425;SDS011;11380;50.822;15.790;2023-10-08T15:57:05;55.50;;;49.60;;
22425;SDS011;11380;50.822;15.790;2023-10-08T16:02:12;55.30;;;49.50;;
22425;SDS011;11380;50.822;15.790;2023-10-08T16:07:19;55.57;;;49.57;;
22425;SDS011;11380;50.822;15.790;2023-10-08T16:12:28;55.57;;;49.67;;
22425;SDS011;11380;50.822;15.790;2023-10-08T16:17:34;55.20;;;49.30;;
22425;SDS011;11380;50.822;15.790;2023-10-08T16:22:44;54.90;;;49.20;;
22425;SDS011;11380;50.822;15.790;2023-10-08T16:27:53;55.27;;;49.47;;
22425;SDS011;11380;50.822;15.790;2023-10-08T16:33:01;55.20;;;49.30;;
22425;SDS011;11380;50.822;15.790;2023-10-08T16:38:10;54.83;;;49.03;;
22425;SDS011;11380;50.822;15.790;2023-10-08T16:43:19;54.30;;;48.70;;
22425;SDS011;11380;50.822;15.790;2023-10-08T16:48:26;55.20;;;49.43;;
22425;SDS011;11380;50.822;15.790;2023-10-08T16:53:33;55.83;;;49.93;;
22425;SDS011;11380;50.822;15.790;2023-10-08T16:58:40;55.17;;;49.37;;
22425;SDS011;11380;50.822;15.790;2023-10-08T17:03:46;55.03;;;49.33;;
22425;SDS011;11380;50.822;15.790;2023-10-08T17:08:54;55.03;;;49.37;;
22425;SDS011;11380;50.822;15.790;2023-10-08T17:19:10;56.07;;;50.27;;
22425;SDS011;11380;50.822;15.790;2023-10-08T17:24:18;55.20;;;49.60;;
22425;SDS011;11380;50.822;15.790;2023-10-08T17:29:25;56.35;;;50.30;;
22425;SDS011;11380;50.822;15.790;2023-10-08T17:34:33;55.70;;;49.83;;
22425;SDS011;11380;50.822;15.790;2023-10-08T17:39:41;55.57;;;49.97;;
22425;SDS011;11380;50.822;15.790;2023-10-08T17:44:51;55.60;;;49.80;;
22425;SDS011;11380;50.822;15.790;2023-10-08T17:49:59;56.27;;;50.30;;
22425;SDS011;11380;50.822;15.790;2023-10-08T17:55:09;55.58;;;49.98;;
22425;SDS011;11380;50.822;15.790;2023-10-08T18:00:17;55.87;;;50.13;;
22425;SDS011;11380;50.822;15.790;2023-10-08T18:05:29;55.53;;;50.00;;
22425;SDS011;11380;50.822;15.790;2023-10-08T18:10:36;55.63;;;50.00;;
22425;SDS011;11380;50.822;15.790;2023-10-08T18:15:45;55.73;;;50.03;;
22425;SDS011;11380;50.822;15.790;2023-10-08T18:20:53;56.40;;;50.50;;
22425;SDS011;11380;50.822;15.790;2023-10-08T18:26:03;55.60;;;50.00;;
22425;SDS011;11380;50.822;15.790;2023-10-08T18:31:13;58.53;;;52.47;;
22425;SDS011;11380;50.822;15.790;2023-10-08T18:36:22;60.23;;;53.83;;
22425;SDS011;11380;50.822;15.790;2023-10-08T18:41:29;66.27;;;57.23;;
22425;SDS011;11380;50.822;15.790;2023-10-08T18:46:37;78.63;;;61.73;;
22425;SDS011;11380;50.822;15.790;2023-10-08T18:51:45;68.50;;;58.43;;
22425;SDS011;11380;50.822;15.790;2023-10-08T18:56:53;61.03;;;54.33;;
22425;SDS011;11380;50.822;15.790;2023-10-08T19:02:00;60.47;;;54.00;;
22425;SDS011;11380;50.822;15.790;2023-10-08T19:07:09;59.67;;;53.03;;
22425;SDS011;11380;50.822;15.790;2023-10-08T19:12:17;60.48;;;53.92;;
22425;SDS011;11380;50.822;15.790;2023-10-08T19:17:23;58.65;;;52.48;;
22425;SDS011;11380;50.822;15.790;2023-10-08T19:22:34;58.60;;;52.37;;
22425;SDS011;11380;50.822;15.790;2023-10-08T19:27:40;59.83;;;53.47;;
22425;SDS011;11380;50.822;15.790;2023-10-08T19:37:56;66.13;;;56.57;;
22425;SDS011;11380;50.822;15.790;2023-10-08T19:43:04;65.70;;;56.90;;
22425;SDS011;11380;50.822;15.790;2023-10-08T19:48:13;64.05;;;56.90;;
22425;SDS011;11380;50.822;15.790;2023-10-08T19:53:21;69.03;;;57.30;;
22425;SDS011;11380;50.822;15.790;2023-10-08T19:58:28;58.90;;;52.57;;
22425;SDS011;11380;50.822;15.790;2023-10-08T20:03:35;58.07;;;52.00;;
22425;SDS011;11380;50.822;15.790;2023-10-08T20:08:42;56.07;;;50.27;;
22425;SDS011;11380;50.822;15.790;2023-10-08T20:13:50;57.70;;;51.60;;
22425;SDS011;11380;50.822;15.790;2023-10-08T20:18:59;57.83;;;51.60;;
22425;SDS011;11380;50.822;15.790;2023-10-08T20:24:08;56.85;;;51.05;;
22425;SDS011;11380;50.822;15.790;2023-10-08T20:29:15;55.87;;;50.20;;
22425;SDS011;11380;50.822;15.790;2023-10-08T20:34:23;56.43;;;50.63;;
22425;SDS011;11380;50.822;15.790;2023-10-08T20:39:30;56.23;;;50.47;;
22425;SDS011;11380;50.822;15.790;2023-10-08T20:44:37;58.30;;;51.87;;
22425;SDS011;11380;50.822;15.790;2023-10-08T20:49:44;56.87;;;50.87;;
22425;SDS011;11380;50.822;15.790;2023-10-08T20:54:53;59.07;;;52.53;;
22425;SDS011;11380;50.822;15.790;2023-10-08T21:05:06;59.50;;;53.15;;
22425;SDS011;11380;50.822;15.790;2023-10-08T21:10:15;67.58;;;57.75;;
22425;SDS011;11380;50.822;15.790;2023-10-08T21:15:23;62.83;;;55.53;;
22425;SDS011;11380;50.822;15.790;2023-10-08T21:20:33;63.37;;;54.63;;
22425;SDS011;11380;50.822;15.790;2023-10-08T21:25:41;62.97;;;55.03;;
22425;SDS011;11380;50.822;15.790;2023-10-08T21:30:50;64.92;;;56.62;;
22425;SDS011;11380;50.822;15.790;2023-10-08T21:35:59;62.30;;;55.07;;
22425;SDS011;11380;50.822;15.790;2023-10-08T21:41:06;64.87;;;54.50;;
22425;SDS011;11380;50.822;15.790;2023-10-08T21:46:13;69.50;;;56.88;;
22425;SDS011;11380;50.822;15.790;2023-10-08T21:51:20;59.85;;;53.33;;
22425;SDS011;11380;50.822;15.790;2023-10-08T21:56:29;57.73;;;51.67;;
22425;SDS011;11380;50.822;15.790;2023-10-08T22:01:37;57.78;;;51.75;;
22425;SDS011;11380;50.822;15.790;2023-10-08T22:06:45;57.63;;;51.63;;
22425;SDS011;11380;50.822;15.790;2023-10-08T22:11:53;57.03;;;51.17;;
22425;SDS011;11380;50.822;15.790;2023-10-08T22:17:02;56.57;;;50.70;;
22425;SDS011;11380;50.822;15.790;2023-10-08T22:22:13;55.53;;;49.93;;
22425;SDS011;11380;50.822;15.790;2023-10-08T22:27:24;56.70;;;50.80;;
22425;SDS011;11380;50.822;15.790;2023-10-08T22:32:35;56.97;;;51.07;;
22425;SDS011;11380;50.822;15.790;2023-10-08T22:37:43;53.97;;;48.40;;
22425;SDS011;11380;50.822;15.790;2023-10-08T22:43:06;54.57;;;49.10;;
22425;SDS011;11380;50.822;15.790;2023-10-08T22:48:16;57.05;;;51.10;;
22425;SDS011;11380;50.822;15.790;2023-10-08T22:53:24;58.07;;;51.97;;
22425;SDS011;11380;50.822;15.790;2023-10-08T22:58:33;58.77;;;52.20;;
22425;SDS011;11380;50.822;15.790;2023-10-08T23:03:40;60.77;;;54.27;;
22425;SDS011;11380;50.822;15.790;2023-10-08T23:08:47;59.87;;;53.47;;
22425;SDS011;11380;50.822;15.790;2023-10-08T23:13:55;60.37;;;53.80;;
22425;SDS011;11380;50.822;15.790;2023-10-08T23:19:04;60.90;;;54.37;;
22425;SDS011;11380;50.822;15.790;2023-10-08T23:24:14;61.37;;;53.37;;
22425;SDS011;11380;50.822;15.790;2023-10-08T23:29:22;59.90;;;53.43;;
22425;SDS011;11380;50.822;15.790;2023-10-08T23:34:29;60.28;;;53.85;;
22425;SDS011;11380;50.822;15.790;2023-10-08T23:39:37;60.53;;;54.00;;
22425;SDS011;11380;50.822;15.790;2023-10-08T23:44:44;61.43;;;54.73;;
22425;SDS011;11380;50.822;15.790;2023-10-08T23:49:52;60.17;;;53.67;;
22425;SDS011;11380;50.822;15.790;2023-10-08T23:55:01;59.97;;;53.60;;
